createdAt,value
2023-01-30T00:01:39.636Z,101057.63
2023-01-30T00:04:06.328Z,101050.69
2023-01-30T00:06:32.905Z,101040.09
2023-01-30T00:08:59.492Z,101034.66
2023-01-30T00:11:28.666Z,101040.75
2023-01-30T00:13:55.205Z,101037.31
2023-01-30T00:16:21.811Z,101036.16
2023-01-30T00:18:48.463Z,101048.38
2023-01-30T00:21:15.528Z,101049.22
2023-01-30T00:23:42.528Z,101055.31
2023-01-30T00:26:10.084Z,101045.56
2023-01-30T00:28:37.590Z,101039.28
2023-01-30T00:31:04.628Z,101040.13
2023-01-30T00:33:31.207Z,101018.28
2023-01-30T00:35:58.070Z,101015.47
2023-01-30T00:38:25.167Z,100998.13
2023-01-30T00:40:52.008Z,100991.03
2023-01-30T00:43:38.606Z,100991.84
2023-01-30T00:46:32.110Z,100972.50
2023-01-30T00:48:58.650Z,100969.03
2023-01-30T00:51:25.201Z,100962.91
2023-01-30T00:53:51.775Z,100961.94
2023-01-30T00:56:18.347Z,100946.06
2023-01-30T00:58:44.924Z,100939.09
2023-01-30T01:01:11.527Z,100928.72
2023-01-30T01:03:38.088Z,100917.13
2023-01-30T01:06:04.906Z,100887.22
2023-01-30T01:08:31.468Z,100878.47
2023-01-30T01:10:58.556Z,100877.63
2023-01-30T01:13:25.139Z,100862.78
2023-01-30T01:15:51.696Z,100847.88
2023-01-30T01:18:18.237Z,100846.06
2023-01-30T01:20:44.789Z,100833.69
2023-01-30T01:23:11.497Z,100821.09
2023-01-30T01:25:38.080Z,100812.38
2023-01-30T01:28:04.900Z,100822.75
2023-01-30T01:30:31.468Z,100821.78
2023-01-30T01:32:58.054Z,100814.66
2023-01-30T01:35:24.640Z,100823.25
2023-01-30T01:37:54.630Z,100817.13
2023-01-30T01:40:40.324Z,100807.56
2023-01-30T01:43:18.138Z,100796.97
2023-01-30T01:45:45.709Z,100769.69
2023-01-30T01:48:16.395Z,100754.81
2023-01-30T01:50:48.397Z,100746.06
2023-01-30T01:53:18.046Z,100736.31
2023-01-30T01:55:46.710Z,100745.09
2023-01-30T01:58:21.043Z,100732.03
2023-01-30T02:00:48.305Z,100755.81
2023-01-30T02:03:22.100Z,100768.03
2023-01-30T02:05:51.082Z,100754.19
2023-01-30T02:08:28.749Z,100754.34
2023-01-30T02:11:07.000Z,100741.13
2023-01-30T02:13:34.021Z,100752.50
2023-01-30T02:16:02.505Z,100722.78
2023-01-30T02:18:29.710Z,100743.94
2023-01-30T02:21:41.220Z,100734.38
2023-01-30T02:24:46.249Z,100724.75
2023-01-30T02:27:42.400Z,100707.91
2023-01-30T02:30:33.681Z,100696.34
2023-01-30T02:33:00.213Z,100685.75
2023-01-30T02:35:42.332Z,100676.00
2023-01-30T02:38:42.195Z,100669.56
2023-01-30T02:41:18.967Z,100653.69
2023-01-30T02:44:05.472Z,100646.56
2023-01-30T02:46:37.936Z,100660.47
2023-01-30T02:49:29.323Z,100634.81
2023-01-30T02:51:56.725Z,100634.66
2023-01-30T02:54:23.400Z,100633.66
2023-01-30T02:56:52.914Z,100624.91
2023-01-30T02:59:28.949Z,100621.59
2023-01-30T03:01:59.672Z,100615.13
2023-01-30T03:04:43.810Z,100604.56
2023-01-30T03:07:25.440Z,100611.84
2023-01-30T03:10:01.747Z,100611.03
2023-01-30T03:13:10.447Z,100589.06
2023-01-30T03:15:43.334Z,100600.44
2023-01-30T03:18:10.064Z,100590.88
2023-01-30T03:20:38.090Z,100573.38
2023-01-30T03:23:07.986Z,100580.47
2023-01-30T03:25:36.285Z,100572.69
2023-01-30T03:28:03.951Z,100568.25
2023-01-30T03:30:30.587Z,100564.13
2023-01-30T03:32:57.134Z,100570.06
2023-01-30T03:35:24.005Z,100564.94
2023-01-30T03:37:50.737Z,100562.50
2023-01-30T03:40:17.819Z,100558.69
2023-01-30T03:42:44.472Z,100543.63
2023-01-30T03:45:11.591Z,100541.81
2023-01-30T03:47:38.162Z,100530.41
2023-01-30T03:50:05.215Z,100532.88
2023-01-30T03:52:31.752Z,100522.13
2023-01-30T03:54:58.299Z,100518.63
2023-01-30T03:57:24.846Z,100510.53
2023-01-30T03:59:51.471Z,100524.41
2023-01-30T04:02:23.045Z,100506.06
2023-01-30T04:04:49.876Z,100498.16
2023-01-30T04:07:16.611Z,100511.19
2023-01-30T04:09:43.288Z,100521.94
2023-01-30T04:12:09.856Z,100507.72
2023-01-30T04:14:36.464Z,100499.97
2023-01-30T04:17:03.048Z,100499.97
2023-01-30T04:19:29.658Z,100493.88
2023-01-30T04:21:56.240Z,100494.84
2023-01-30T04:24:23.029Z,100489.75
2023-01-30T04:26:49.580Z,100498.66
2023-01-30T04:29:16.153Z,100499.31
2023-01-30T04:31:42.825Z,100471.41
2023-01-30T04:34:09.448Z,100483.81
2023-01-30T04:36:36.966Z,100483.81
2023-01-30T04:39:03.870Z,100457.38
2023-01-30T04:41:30.480Z,100458.38
2023-01-30T04:43:57.046Z,100454.09
2023-01-30T04:46:23.586Z,100449.59
2023-01-30T04:48:50.152Z,100434.56
2023-01-30T04:51:16.705Z,100428.28
2023-01-30T04:53:43.290Z,100424.81
2023-01-30T04:56:09.841Z,100442.97
2023-01-30T04:58:36.587Z,100427.09
2023-01-30T05:01:14.164Z,100423.09
2023-01-30T05:03:40.775Z,100403.97
2023-01-30T05:06:07.647Z,100404.75
2023-01-30T05:08:34.267Z,100406.41
2023-01-30T05:11:00.833Z,100401.09
2023-01-30T05:13:27.379Z,100409.69
2023-01-30T05:15:53.932Z,100393.84
2023-01-30T05:18:20.502Z,100397.47
2023-01-30T05:20:47.035Z,100383.44
2023-01-30T05:23:13.711Z,100388.72
2023-01-30T05:25:40.271Z,100383.59
2023-01-30T05:28:06.958Z,100375.50
2023-01-30T05:30:33.650Z,100366.09
2023-01-30T05:33:00.272Z,100361.66
2023-01-30T05:35:26.843Z,100360.81
2023-01-30T05:37:53.418Z,100357.34
2023-01-30T05:40:20.006Z,100359.19
2023-01-30T05:42:46.553Z,100352.25
2023-01-30T05:45:13.137Z,100340.00
2023-01-30T05:47:39.926Z,100340.00
2023-01-30T05:50:06.739Z,100337.53
2023-01-30T05:52:33.324Z,100333.25
2023-01-30T05:54:59.882Z,100349.97
2023-01-30T05:57:26.425Z,100337.75
2023-01-30T05:59:55.787Z,100338.56
2023-01-30T06:02:22.368Z,100331.47
2023-01-30T06:04:48.940Z,100328.63
2023-01-30T06:07:15.505Z,100320.88
2023-01-30T06:09:42.044Z,100316.22
2023-01-30T06:12:08.822Z,100304.66
2023-01-30T06:14:35.384Z,100304.66
2023-01-30T06:17:01.959Z,100304.44
2023-01-30T06:19:28.530Z,100305.28
2023-01-30T06:21:55.073Z,100300.63
2023-01-30T06:24:21.644Z,100292.06
2023-01-30T06:26:48.250Z,100286.78
2023-01-30T06:29:14.924Z,100292.91
2023-01-30T06:31:41.571Z,100282.31
2023-01-30T06:34:08.159Z,100279.69
2023-01-30T06:36:34.785Z,100294.72
2023-01-30T06:39:01.345Z,100290.44
2023-01-30T06:41:27.877Z,100280.66
2023-01-30T06:43:55.540Z,100274.56
2023-01-30T06:46:22.093Z,100272.09
2023-01-30T06:48:48.633Z,100278.22
2023-01-30T06:51:15.186Z,100283.50
2023-01-30T06:53:41.733Z,100276.38
2023-01-30T06:56:08.351Z,100278.22
2023-01-30T06:58:34.933Z,100281.84
2023-01-30T07:01:02.332Z,100269.63
2023-01-30T07:03:28.909Z,100284.50
2023-01-30T07:05:55.455Z,100261.69
2023-01-30T07:08:24.006Z,100272.63
2023-01-30T07:10:51.103Z,100300.53
2023-01-30T07:13:17.780Z,100271.66
2023-01-30T07:15:44.716Z,100292.81
2023-01-30T07:18:11.272Z,100255.78
2023-01-30T07:20:37.856Z,100283.22
2023-01-30T07:23:04.567Z,100295.44
2023-01-30T07:25:31.142Z,100269.00
2023-01-30T07:27:59.748Z,100270.66
2023-01-30T07:30:28.264Z,100253.78
2023-01-30T07:32:57.855Z,100265.97
2023-01-30T07:35:25.710Z,100260.69
2023-01-30T07:37:52.313Z,100250.94
2023-01-30T07:40:20.489Z,100249.94
2023-01-30T07:43:00.614Z,100261.34
2023-01-30T07:45:44.402Z,100236.53
2023-01-30T07:48:12.761Z,100248.75
2023-01-30T07:50:39.366Z,100245.31
2023-01-30T07:53:07.653Z,100238.00
2023-01-30T07:55:34.519Z,100245.75
2023-01-30T07:58:01.167Z,100238.81
2023-01-30T08:00:27.750Z,100239.81
2023-01-30T08:02:54.360Z,100252.22
2023-01-30T08:05:20.912Z,100238.00
2023-01-30T08:07:47.613Z,100246.09
2023-01-30T08:10:14.316Z,100244.47
2023-01-30T08:12:41.201Z,100251.56
2023-01-30T08:15:09.075Z,100252.41
2023-01-30T08:17:35.655Z,100242.84
2023-01-30T08:20:02.215Z,100237.72
2023-01-30T08:22:29.119Z,100230.81
2023-01-30T08:24:55.690Z,100241.38
2023-01-30T08:27:22.253Z,100237.06
2023-01-30T08:29:48.876Z,100229.34
2023-01-30T08:32:15.976Z,100228.16
2023-01-30T08:34:42.609Z,100241.38
2023-01-30T08:37:09.163Z,100234.25
2023-01-30T08:39:37.282Z,100239.38
2023-01-30T08:42:04.055Z,100225.34
2023-01-30T08:44:30.623Z,100220.69
2023-01-30T08:46:57.178Z,100224.94
2023-01-30T08:49:23.717Z,100233.72
2023-01-30T08:51:50.258Z,100233.53
2023-01-30T08:54:16.831Z,100230.91
2023-01-30T08:56:43.414Z,100234.34
2023-01-30T08:59:09.971Z,100233.53
2023-01-30T09:01:38.153Z,100225.59
2023-01-30T09:04:04.862Z,100226.41
2023-01-30T09:06:31.536Z,100223.75
2023-01-30T09:08:59.715Z,100251.41
2023-01-30T09:11:26.306Z,100235.16
2023-01-30T09:13:53.216Z,100254.03
2023-01-30T09:16:19.827Z,100246.94
2023-01-30T09:18:46.423Z,100232.88
2023-01-30T09:21:13.377Z,100231.06
2023-01-30T09:23:40.238Z,100224.16
2023-01-30T09:26:06.884Z,100245.31
2023-01-30T09:28:34.284Z,100230.63
2023-01-30T09:31:01.944Z,100241.00
2023-01-30T09:33:28.726Z,100234.06
2023-01-30T09:35:55.809Z,100228.00
2023-01-30T09:38:22.355Z,100220.84
2023-01-30T09:40:57.628Z,100236.53
2023-01-30T09:43:46.044Z,100242.66
2023-01-30T09:46:35.169Z,100236.97
2023-01-30T09:49:15.228Z,100235.16
2023-01-30T09:51:53.945Z,100252.66
2023-01-30T09:54:32.472Z,100235.16
2023-01-30T09:57:22.904Z,100252.66
2023-01-30T10:00:12.414Z,100262.63
2023-01-30T10:02:45.119Z,100261.63
2023-01-30T10:05:12.362Z,100247.56
2023-01-30T10:08:16.156Z,100243.09
2023-01-30T10:10:55.044Z,100240.63
2023-01-30T10:13:47.395Z,100239.19
2023-01-30T10:16:20.128Z,100243.63
2023-01-30T10:19:00.255Z,100235.91
2023-01-30T10:21:47.668Z,100228.00
2023-01-30T10:24:46.458Z,100227.78
2023-01-30T10:27:16.541Z,100225.97
2023-01-30T10:29:53.322Z,100227.59
2023-01-30T10:32:41.768Z,100231.69
2023-01-30T10:35:20.147Z,100221.94
2023-01-30T10:37:50.633Z,100223.59
2023-01-30T10:40:34.019Z,100225.44
2023-01-30T10:43:13.020Z,100218.13
2023-01-30T10:45:49.070Z,100221.19
2023-01-30T10:48:46.081Z,100216.59
2023-01-30T10:51:47.150Z,100218.06
2023-01-30T10:54:19.394Z,100203.63
2023-01-30T10:57:02.147Z,100200.81
2023-01-30T10:59:50.577Z,100205.09
2023-01-30T11:02:25.279Z,100178.81
2023-01-30T11:04:59.485Z,100192.88
2023-01-30T11:07:32.848Z,100187.59
2023-01-30T11:10:00.495Z,100186.75
2023-01-30T11:12:27.228Z,100195.69
2023-01-30T11:15:00.855Z,100202.63
2023-01-30T11:17:30.447Z,100186.13
2023-01-30T11:19:58.267Z,100191.41
2023-01-30T11:22:28.575Z,100174.09
2023-01-30T11:25:09.996Z,100179.56
2023-01-30T11:27:37.103Z,100186.81
2023-01-30T11:30:22.130Z,100172.81
2023-01-30T11:32:49.651Z,100172.97
2023-01-30T11:35:16.222Z,100171.34
2023-01-30T11:37:44.886Z,100165.41
2023-01-30T11:40:17.752Z,100148.75
2023-01-30T11:42:49.823Z,100158.50
2023-01-30T11:45:18.603Z,100159.31
2023-01-30T11:47:57.868Z,100152.38
2023-01-30T11:50:33.341Z,100153.19
2023-01-30T11:53:33.701Z,100128.38
2023-01-30T11:56:08.794Z,100130.84
2023-01-30T11:58:39.211Z,100136.75
2023-01-30T12:01:09.361Z,100133.13
2023-01-30T12:03:39.991Z,100135.59
2023-01-30T12:06:06.615Z,100131.97
2023-01-30T12:08:44.069Z,100115.09
2023-01-30T12:11:47.582Z,100117.72
2023-01-30T12:14:32.342Z,100114.06
2023-01-30T12:17:12.388Z,100114.06
2023-01-30T12:19:54.299Z,100102.31
2023-01-30T12:22:26.314Z,100092.72
2023-01-30T12:25:00.500Z,100099.66
2023-01-30T12:27:43.506Z,100095.19
2023-01-30T12:30:21.031Z,100082.16
2023-01-30T12:32:47.708Z,100083.16
2023-01-30T12:35:19.481Z,100093.94
2023-01-30T12:38:18.737Z,100071.75
2023-01-30T12:40:51.846Z,100082.34
2023-01-30T12:43:24.403Z,100073.38
2023-01-30T12:46:12.808Z,100058.53
2023-01-30T12:49:12.063Z,100061.00
2023-01-30T12:51:54.001Z,100048.78
2023-01-30T12:54:30.754Z,100046.94
2023-01-30T12:57:19.189Z,100057.75
2023-01-30T13:00:23.569Z,100050.00
2023-01-30T13:03:10.020Z,100041.88
2023-01-30T13:05:53.999Z,100050.78
2023-01-30T13:08:55.004Z,100050.59
2023-01-30T13:11:37.418Z,100067.31
2023-01-30T13:14:07.093Z,100061.19
2023-01-30T13:16:42.342Z,100062.00
2023-01-30T13:19:25.349Z,100061.00
2023-01-30T13:22:22.659Z,100057.97
2023-01-30T13:25:04.398Z,100051.69
2023-01-30T13:27:35.417Z,100053.31
2023-01-30T13:30:05.657Z,100057.59
2023-01-30T13:32:43.764Z,100064.53
2023-01-30T13:35:22.208Z,100069.00
2023-01-30T13:37:49.969Z,100078.75
2023-01-30T13:40:20.502Z,100074.47
2023-01-30T13:42:53.529Z,100070.38
2023-01-30T13:45:22.948Z,100068.75
2023-01-30T13:48:08.105Z,100065.09
2023-01-30T13:51:04.229Z,100050.25
2023-01-30T13:53:58.445Z,100055.72
2023-01-30T13:56:43.148Z,100054.06
2023-01-30T13:59:40.832Z,100049.81
2023-01-30T14:02:09.508Z,100044.50
2023-01-30T14:04:43.175Z,100035.75
2023-01-30T14:07:12.738Z,100039.41
2023-01-30T14:09:45.425Z,100035.09
2023-01-30T14:12:19.479Z,100030.00
2023-01-30T14:15:12.216Z,100030.81
2023-01-30T14:17:39.030Z,100030.81
2023-01-30T14:20:15.837Z,100022.06
2023-01-30T14:22:54.164Z,100029.81
2023-01-30T14:25:23.420Z,100027.00
2023-01-30T14:27:52.815Z,100026.00
2023-01-30T14:30:31.980Z,100040.84
2023-01-30T14:33:00.299Z,100047.78
2023-01-30T14:35:33.066Z,100042.50
2023-01-30T14:38:08.385Z,100056.34
2023-01-30T14:40:36.368Z,100082.81
2023-01-30T14:43:12.023Z,100121.66
2023-01-30T14:46:01.326Z,100175.16
2023-01-30T14:48:28.932Z,100194.50
2023-01-30T14:51:29.264Z,100150.75
2023-01-30T14:54:14.595Z,100113.72
2023-01-30T14:57:06.373Z,100115.53
2023-01-30T14:59:39.478Z,100138.34
2023-01-30T15:02:15.336Z,100154.41
2023-01-30T15:05:29.832Z,100171.06
2023-01-30T15:07:58.965Z,100195.03
2023-01-30T15:10:59.299Z,100172.06
2023-01-30T15:13:57.689Z,100175.72
2023-01-30T15:16:34.417Z,100175.91
2023-01-30T15:19:14.764Z,100186.50
2023-01-30T15:22:12.533Z,100191.78
2023-01-30T15:25:36.147Z,100212.28
2023-01-30T15:28:17.313Z,100194.75
2023-01-30T15:30:57.234Z,100196.41
2023-01-30T15:33:31.534Z,100202.69
2023-01-30T15:35:59.340Z,100193.78
2023-01-30T15:38:33.559Z,100190.94
2023-01-30T15:41:05.014Z,100203.19
2023-01-30T15:43:50.043Z,100196.06
2023-01-30T15:46:49.014Z,100205.63
2023-01-30T15:49:47.242Z,100204.66
2023-01-30T15:52:18.982Z,100211.75
2023-01-30T15:54:51.670Z,100213.56
2023-01-30T15:57:26.026Z,100212.56
2023-01-30T15:59:54.289Z,100208.91
2023-01-30T16:02:28.904Z,100217.88
2023-01-30T16:05:24.844Z,100218.84
2023-01-30T16:07:53.549Z,100220.50
2023-01-30T16:10:25.973Z,100231.09
2023-01-30T16:12:56.004Z,100227.00
2023-01-30T16:15:44.074Z,100235.72
2023-01-30T16:18:39.970Z,100239.38
2023-01-30T16:21:10.290Z,100237.56
2023-01-30T16:23:41.989Z,100234.09
2023-01-30T16:26:13.510Z,100231.44
2023-01-30T16:28:40.846Z,100232.47
2023-01-30T16:31:09.931Z,100246.31
2023-01-30T16:33:37.432Z,100244.84
2023-01-30T16:36:26.716Z,100257.91
2023-01-30T16:38:54.707Z,100259.72
2023-01-30T16:41:39.298Z,100255.44
2023-01-30T16:44:18.592Z,100261.38
2023-01-30T16:46:56.001Z,100263.00
2023-01-30T16:49:27.063Z,100260.53
2023-01-30T16:52:03.703Z,100270.94
2023-01-30T16:54:31.942Z,100281.53
2023-01-30T16:56:59.772Z,100270.75
2023-01-30T16:59:34.760Z,100275.22
2023-01-30T17:02:03.100Z,100274.38
2023-01-30T17:04:31.907Z,100284.63
2023-01-30T17:07:04.250Z,100287.44
2023-01-30T17:09:46.069Z,100285.63
2023-01-30T17:12:35.125Z,100286.47
2023-01-30T17:15:13.608Z,100303.97
2023-01-30T17:17:40.895Z,100294.38
2023-01-30T17:20:08.470Z,100298.00
2023-01-30T17:22:35.362Z,100308.59
2023-01-30T17:25:03.595Z,100321.03
2023-01-30T17:27:30.735Z,100319.34
2023-01-30T17:29:57.612Z,100338.69
2023-01-30T17:32:24.209Z,100342.19
2023-01-30T17:34:50.815Z,100345.81
2023-01-30T17:37:20.163Z,100348.28
2023-01-30T17:39:47.544Z,100350.28
2023-01-30T17:42:15.283Z,100363.69
2023-01-30T17:44:42.027Z,100362.69
2023-01-30T17:47:11.137Z,100355.75
2023-01-30T17:49:37.724Z,100365.50
2023-01-30T17:52:04.560Z,100373.44
2023-01-30T17:54:31.093Z,100373.59
2023-01-30T17:57:05.992Z,100376.06
2023-01-30T17:59:32.762Z,100365.31
2023-01-30T18:01:59.470Z,100373.44
2023-01-30T18:04:26.054Z,100376.75
2023-01-30T18:06:55.936Z,100397.72
2023-01-30T18:09:27.038Z,100404.66
2023-01-30T18:11:53.847Z,100398.53
2023-01-30T18:14:22.178Z,100409.94
2023-01-30T18:16:49.575Z,100407.91
2023-01-30T18:19:24.110Z,100422.97
2023-01-30T18:21:50.916Z,100436.03
2023-01-30T18:24:18.423Z,100441.31
2023-01-30T18:26:45.956Z,100443.97
2023-01-30T18:29:13.236Z,100451.06
2023-01-30T18:31:40.656Z,100457.19
2023-01-30T18:34:07.393Z,100458.00
2023-01-30T18:36:35.276Z,100466.78
2023-01-30T18:39:01.997Z,100467.78
2023-01-30T18:41:29.054Z,100468.59
2023-01-30T18:44:01.769Z,100487.09
2023-01-30T18:46:28.684Z,100481.97
2023-01-30T18:48:56.089Z,100494.22
2023-01-30T18:51:25.861Z,100490.75
2023-01-30T18:53:53.479Z,100497.84
2023-01-30T18:56:22.619Z,100502.50
2023-01-30T18:58:56.392Z,100506.78
2023-01-30T19:01:28.119Z,100513.94
2023-01-30T19:03:56.264Z,100521.03
2023-01-30T19:06:23.308Z,100519.38
2023-01-30T19:08:49.861Z,100533.41
2023-01-30T19:11:36.653Z,100526.31
2023-01-30T19:14:03.935Z,100532.44
2023-01-30T19:16:31.966Z,100540.19
2023-01-30T19:18:58.532Z,100546.13
2023-01-30T19:21:25.868Z,100555.88
2023-01-30T19:23:53.294Z,100550.56
2023-01-30T19:26:21.406Z,100562.81
2023-01-30T19:28:48.274Z,100564.47
2023-01-30T19:31:18.604Z,100575.06
2023-01-30T19:33:48.311Z,100583.78
2023-01-30T19:36:21.104Z,100581.97
2023-01-30T19:38:48.429Z,100598.03
2023-01-30T19:41:16.808Z,100595.22
2023-01-30T19:43:43.519Z,100601.34
2023-01-30T19:46:11.781Z,100589.09
2023-01-30T19:48:39.422Z,100611.25
2023-01-30T19:51:22.864Z,100612.88
2023-01-30T19:53:57.458Z,100627.13
2023-01-30T19:56:25.829Z,100623.66
2023-01-30T19:58:54.894Z,100638.72
2023-01-30T20:01:23.245Z,100631.56
2023-01-30T20:03:49.976Z,100639.72
2023-01-30T20:06:21.161Z,100637.06
2023-01-30T20:08:50.151Z,100643.16
2023-01-30T20:11:21.790Z,100647.66
2023-01-30T20:13:48.892Z,100650.28
2023-01-30T20:16:20.676Z,100652.09
2023-01-30T20:18:56.486Z,100660.03
2023-01-30T20:21:23.448Z,100663.53
2023-01-30T20:23:50.380Z,100667.81
2023-01-30T20:26:19.477Z,100673.72
2023-01-30T20:28:46.225Z,100683.50
2023-01-30T20:31:20.457Z,100694.91
2023-01-30T20:33:47.599Z,100671.94
2023-01-30T20:36:18.564Z,100689.28
2023-01-30T20:38:46.439Z,100701.31
2023-01-30T20:41:18.117Z,100703.13
2023-01-30T20:43:47.277Z,100710.09
2023-01-30T20:46:21.505Z,100701.31
2023-01-30T20:48:48.738Z,100707.44
2023-01-30T20:51:18.319Z,100709.25
2023-01-30T20:53:50.594Z,100705.78
2023-01-30T20:56:18.024Z,100709.25
2023-01-30T20:58:44.695Z,100711.91
2023-01-30T21:01:17.605Z,100724.28
2023-01-30T21:03:46.043Z,100730.41
2023-01-30T21:06:12.818Z,100723.50
2023-01-30T21:08:40.005Z,100745.66
2023-01-30T21:11:10.364Z,100756.25
2023-01-30T21:13:37.427Z,100760.69
2023-01-30T21:16:08.645Z,100771.28
2023-01-30T21:18:37.087Z,100765.16
2023-01-30T21:21:04.246Z,100775.09
2023-01-30T21:23:31.833Z,100773.28
2023-01-30T21:26:04.289Z,100791.81
2023-01-30T21:28:32.026Z,100798.06
2023-01-30T21:31:19.304Z,100799.06
2023-01-30T21:33:46.287Z,100804.38
2023-01-30T21:36:13.677Z,100814.09
2023-01-30T21:38:59.005Z,100809.50
2023-01-30T21:41:46.453Z,100821.88
2023-01-30T21:44:14.042Z,100812.97
2023-01-30T21:46:43.621Z,100814.44
2023-01-30T21:49:10.271Z,100817.91
2023-01-30T21:51:37.730Z,100829.16
2023-01-30T21:54:04.428Z,100825.66
2023-01-30T21:56:31.537Z,100820.38
2023-01-30T21:58:59.376Z,100825.50
2023-01-30T22:01:26.835Z,100836.25
2023-01-30T22:03:53.524Z,100822.03
2023-01-30T22:06:20.399Z,100835.41
2023-01-30T22:08:46.969Z,100844.03
2023-01-30T22:11:19.466Z,100843.34
2023-01-30T22:13:46.595Z,100839.72
2023-01-30T22:16:15.807Z,100852.13
2023-01-30T22:18:44.012Z,100853.13
2023-01-30T22:21:12.637Z,100853.94
2023-01-30T22:23:44.469Z,100861.06
2023-01-30T22:26:13.272Z,100863.53
2023-01-30T22:28:40.347Z,100882.06
2023-01-30T22:31:18.323Z,100890.16
2023-01-30T22:33:53.548Z,100887.34
2023-01-30T22:36:20.724Z,100889.16
2023-01-30T22:38:49.151Z,100898.09
2023-01-30T22:41:20.200Z,100901.56
2023-01-30T22:43:49.291Z,100910.50
2023-01-30T22:46:18.128Z,100913.31
2023-01-30T22:48:45.537Z,100915.94
2023-01-30T22:51:17.164Z,100921.25
2023-01-30T22:53:46.113Z,100928.22
2023-01-30T22:56:15.492Z,100923.72
2023-01-30T22:58:42.658Z,100921.75
2023-01-30T23:01:20.870Z,100921.75
2023-01-30T23:03:49.092Z,100926.03
2023-01-30T23:06:17.187Z,100932.16
2023-01-30T23:08:46.114Z,100945.22
2023-01-30T23:11:38.285Z,100945.22
2023-01-30T23:14:13.813Z,100948.03
2023-01-30T23:16:42.133Z,100958.44
2023-01-30T23:19:10.065Z,100958.44
2023-01-30T23:21:39.220Z,100963.72
2023-01-30T23:24:07.634Z,100946.38
2023-01-30T23:26:36.666Z,100960.28
2023-01-30T23:29:07.433Z,100950.69
2023-01-30T23:31:34.725Z,100950.84
2023-01-30T23:34:03.386Z,100952.50
2023-01-30T23:36:30.414Z,100953.50
2023-01-30T23:38:58.604Z,100956.97
2023-01-30T23:41:30.148Z,100962.41
2023-01-30T23:43:57.929Z,100973.00
2023-01-30T23:46:28.724Z,100978.28
2023-01-30T23:49:06.600Z,100973.00
2023-01-30T23:51:35.513Z,100974.00
2023-01-30T23:54:02.468Z,100961.75
2023-01-30T23:56:30.873Z,100962.75
2023-01-30T23:58:57.960Z,100961.94
